createdAt,value
2023-04-14T00:04:21.120Z,74.97
2023-04-14T00:09:23.046Z,70.50
2023-04-14T00:14:24.807Z,59.50
2023-04-14T00:19:26.869Z,13.10
2023-04-14T00:24:29.006Z,21.23
2023-04-14T00:29:31.065Z,73.32
2023-04-14T00:34:33.420Z,31.73
2023-04-14T00:39:35.376Z,35.97
2023-04-14T00:44:37.434Z,63.75
2023-04-14T00:49:39.777Z,120.70
2023-04-14T00:54:42.092Z,102.35
2023-04-14T00:59:43.840Z,66.57
2023-04-14T01:04:53.399Z,41.45
2023-04-14T01:09:57.457Z,19.80
2023-04-14T01:15:12.828Z,46.38
2023-04-14T01:20:30.084Z,46.40
2023-04-14T01:25:47.232Z,35.72
2023-04-14T01:31:20.932Z,43.38
2023-04-14T01:36:28.729Z,39.88
2023-04-14T01:41:32.188Z,35.13
2023-04-14T01:46:36.379Z,36.10
2023-04-14T01:51:42.136Z,22.83
2023-04-14T01:56:45.697Z,39.25
2023-04-14T02:01:51.252Z,33.15
2023-04-14T02:06:55.608Z,78.35
2023-04-14T02:11:58.439Z,15.30
2023-04-14T02:17:03.101Z,32.80
2023-04-14T02:22:05.371Z,26.30
2023-04-14T02:27:18.047Z,8.10
2023-04-14T02:32:29.872Z,12.63
2023-04-14T02:37:53.964Z,21.77
2023-04-14T02:43:04.743Z,12.15
2023-04-14T02:48:14.116Z,11.93
2023-04-14T02:53:19.112Z,10.68
2023-04-14T02:58:21.826Z,7.80
2023-04-14T03:03:24.782Z,9.32
2023-04-14T03:08:27.899Z,7.85
2023-04-14T03:13:33.684Z,2.80
2023-04-14T03:18:37.320Z,3.22
2023-04-14T03:23:40.104Z,19.90
2023-04-14T03:28:42.968Z,8.82
2023-04-14T03:33:47.420Z,41.00
2023-04-14T03:38:50.675Z,12.98
2023-04-14T03:43:57.128Z,82.00
2023-04-14T03:49:00.231Z,12.93
2023-04-14T03:54:05.858Z,14.95
2023-04-14T03:59:12.581Z,20.05
2023-04-14T04:04:15.038Z,32.30
2023-04-14T04:09:19.798Z,42.83
2023-04-14T04:14:22.968Z,50.92
2023-04-14T04:19:26.492Z,48.22
2023-04-14T04:24:33.207Z,23.50
2023-04-14T04:29:34.918Z,52.55
2023-04-14T04:34:37.208Z,114.40
2023-04-14T04:39:39.320Z,89.85
2023-04-14T04:44:41.081Z,39.75
2023-04-14T04:49:43.079Z,100.75
2023-04-14T04:54:46.162Z,72.20
2023-04-14T04:59:48.221Z,125.82
2023-04-14T05:04:50.299Z,50.35
2023-04-14T05:09:52.166Z,114.25
2023-04-14T05:14:54.001Z,75.32
2023-04-14T05:19:57.602Z,164.63
2023-04-14T05:24:59.622Z,28.00
2023-04-14T05:30:01.475Z,91.00
2023-04-14T05:35:03.663Z,204.27
2023-04-14T05:40:06.966Z,134.30
2023-04-14T05:45:10.015Z,35.38
2023-04-14T05:50:12.036Z,159.77
2023-04-14T05:55:13.936Z,108.18
2023-04-14T06:00:16.003Z,90.70
2023-04-14T06:05:18.247Z,109.65
2023-04-14T06:10:20.680Z,68.97
2023-04-14T06:15:22.658Z,42.70
2023-04-14T06:20:24.805Z,13.75
2023-04-14T06:25:27.159Z,24.02
2023-04-14T06:30:29.473Z,14.15
2023-04-14T06:35:33.612Z,69.55
2023-04-14T06:40:36.382Z,18.23
2023-04-14T06:45:38.324Z,128.82
2023-04-14T06:50:40.861Z,51.58
2023-04-14T06:55:43.740Z,18.08
2023-04-14T07:00:45.884Z,12.77
2023-04-14T07:05:47.988Z,17.73
2023-04-14T07:10:49.764Z,52.38
2023-04-14T07:15:51.734Z,12.40
2023-04-14T07:20:54.369Z,7.55
2023-04-14T07:25:58.823Z,6.45
2023-04-14T07:31:09.308Z,5.18
2023-04-14T07:36:11.436Z,10.07
2023-04-14T07:41:13.312Z,8.02
2023-04-14T07:46:15.061Z,13.18
2023-04-14T07:51:17.568Z,7.32
2023-04-14T07:56:19.728Z,7.22
2023-04-14T08:01:21.564Z,10.05
2023-04-14T08:06:23.587Z,10.30
2023-04-14T08:11:25.476Z,9.05
2023-04-14T08:16:28.725Z,10.23
2023-04-14T08:21:30.926Z,9.77
2023-04-14T08:26:32.752Z,5.38
2023-04-14T08:31:34.755Z,8.52
2023-04-14T08:36:37.163Z,6.72
2023-04-14T08:41:39.868Z,5.50
2023-04-14T08:46:43.252Z,8.75
2023-04-14T08:51:47.637Z,9.02
2023-04-14T08:56:49.968Z,7.25
2023-04-14T09:01:53.459Z,5.85
2023-04-14T09:06:56.852Z,8.52
2023-04-14T09:11:58.884Z,5.82
2023-04-14T09:17:00.912Z,8.32
2023-04-14T09:22:02.728Z,5.50
2023-04-14T09:27:05.362Z,12.00
2023-04-14T09:32:09.623Z,8.88
2023-04-14T09:37:11.525Z,6.10
2023-04-14T09:42:13.314Z,4.30
2023-04-14T09:47:16.456Z,7.72
2023-04-14T09:52:18.296Z,10.43
2023-04-14T09:57:26.740Z,3.78
2023-04-14T10:02:28.929Z,3.63
2023-04-14T10:07:31.167Z,10.02
2023-04-14T10:12:33.384Z,4.40
2023-04-14T10:17:37.215Z,5.60
2023-04-14T10:22:41.332Z,7.10
2023-04-14T10:27:44.015Z,10.13
2023-04-14T10:32:48.384Z,3.72
2023-04-14T10:37:51.995Z,8.90
2023-04-14T10:42:57.264Z,5.45
2023-04-14T10:47:59.523Z,8.05
2023-04-14T10:53:07.946Z,4.65
2023-04-14T10:58:10.018Z,6.65
2023-04-14T11:03:15.145Z,9.43
2023-04-14T11:08:27.706Z,6.85
2023-04-14T11:13:31.106Z,6.50
2023-04-14T11:18:34.324Z,7.20
2023-04-14T11:23:37.485Z,5.68
2023-04-14T11:28:42.247Z,5.75
2023-04-14T11:33:45.075Z,4.30
2023-04-14T11:38:47.991Z,6.97
2023-04-14T11:43:51.109Z,7.78
2023-04-14T11:48:56.594Z,4.47
2023-04-14T11:54:00.293Z,4.10
2023-04-14T11:59:03.979Z,4.88
2023-04-14T12:04:06.667Z,6.47
2023-04-14T12:09:09.308Z,5.70
2023-04-14T12:14:11.737Z,5.05
2023-04-14T12:19:13.702Z,4.78
2023-04-14T12:24:16.099Z,5.07
2023-04-14T12:29:20.470Z,5.55
2023-04-14T12:34:29.493Z,7.28
2023-04-14T12:39:31.544Z,3.20
2023-04-14T12:44:33.446Z,5.35
2023-04-14T12:49:37.899Z,3.58
2023-04-14T12:54:51.923Z,7.15
2023-04-14T12:59:56.776Z,4.65
2023-04-14T13:04:59.294Z,3.80
2023-04-14T13:10:02.195Z,6.80
2023-04-14T13:15:04.997Z,2.58
2023-04-14T13:20:07.491Z,4.28
2023-04-14T13:25:09.465Z,4.68
2023-04-14T13:30:11.669Z,5.82
2023-04-14T13:35:13.574Z,4.05
2023-04-14T13:40:15.507Z,1.45
2023-04-14T13:45:17.893Z,3.90
2023-04-14T13:50:21.387Z,3.35
2023-04-14T13:55:24.071Z,4.00
2023-04-14T14:00:26.555Z,7.20
2023-04-14T14:05:28.461Z,2.10
2023-04-14T14:10:30.935Z,3.15
2023-04-14T14:15:32.683Z,4.97
2023-04-14T14:20:34.407Z,4.75
2023-04-14T14:25:36.656Z,2.42
2023-04-14T14:30:38.901Z,5.35
2023-04-14T14:35:40.770Z,4.03
2023-04-14T14:40:42.592Z,7.47
2023-04-14T14:45:44.329Z,4.38
2023-04-14T14:50:47.437Z,6.18
2023-04-14T14:55:49.236Z,4.28
2023-04-14T15:00:52.161Z,5.45
2023-04-14T15:05:54.086Z,6.55
2023-04-14T15:10:55.894Z,3.15
2023-04-14T15:15:57.914Z,9.00
2023-04-14T15:20:59.950Z,4.15
2023-04-14T15:26:03.524Z,7.38
2023-04-14T15:31:05.784Z,4.65
2023-04-14T15:36:08.114Z,2.30
2023-04-14T15:41:11.111Z,6.45
2023-04-14T15:46:14.367Z,5.97
2023-04-14T15:51:17.206Z,2.70
2023-04-14T15:56:19.219Z,5.55
2023-04-14T16:01:21.453Z,9.38
2023-04-14T16:06:23.895Z,5.07
2023-04-14T16:11:25.732Z,3.92
2023-04-14T16:16:27.835Z,3.08
2023-04-14T16:21:30.151Z,5.05
2023-04-14T16:26:33.027Z,4.68
2023-04-14T16:31:35.079Z,3.53
2023-04-14T16:36:38.129Z,6.03
2023-04-14T16:41:41.492Z,4.78
2023-04-14T16:46:43.572Z,6.10
2023-04-14T16:51:46.257Z,6.45
2023-04-14T16:56:48.224Z,2.83
2023-04-14T17:01:50.285Z,7.30
2023-04-14T17:06:52.176Z,4.78
2023-04-14T17:11:54.742Z,10.85
2023-04-14T17:16:56.839Z,6.85
2023-04-14T17:21:59.442Z,5.03
2023-04-14T17:27:02.397Z,3.05
2023-04-14T17:32:04.648Z,4.75
2023-04-14T17:37:06.724Z,6.30
2023-04-14T17:42:09.412Z,4.68
2023-04-14T17:47:16.229Z,4.75
2023-04-14T17:52:19.728Z,10.40
2023-04-14T17:57:22.452Z,8.73
2023-04-14T18:02:24.519Z,8.40
2023-04-14T18:07:26.393Z,13.23
2023-04-14T18:12:28.356Z,9.93
2023-04-14T18:17:30.295Z,6.70
2023-04-14T18:22:32.658Z,6.47
2023-04-14T18:32:40.169Z,5.53
2023-04-14T18:37:43.153Z,7.35
2023-04-14T18:42:46.891Z,8.00
2023-04-14T18:47:49.455Z,5.40
2023-04-14T18:52:51.700Z,38.63
2023-04-14T18:57:53.879Z,6.03
2023-04-14T19:02:58.257Z,7.78
2023-04-14T19:08:00.904Z,12.52
2023-04-14T19:13:02.874Z,9.73
2023-04-14T19:18:04.983Z,12.95
2023-04-14T19:23:06.929Z,15.60
2023-04-14T19:28:16.700Z,34.92
2023-04-14T19:33:18.702Z,18.10
2023-04-14T19:38:20.710Z,13.68
2023-04-14T19:43:22.854Z,11.65
2023-04-14T19:48:25.422Z,11.88
2023-04-14T19:53:28.109Z,9.38
2023-04-14T19:58:31.414Z,5.55
2023-04-14T20:03:34.679Z,10.07
2023-04-14T20:08:37.153Z,6.45
2023-04-14T20:13:39.724Z,6.32
2023-04-14T20:18:45.271Z,10.73
2023-04-14T20:23:47.140Z,9.70
2023-04-14T20:28:49.572Z,8.50
2023-04-14T20:33:51.353Z,4.82
2023-04-14T20:38:53.438Z,7.18
2023-04-14T20:43:55.445Z,2.72
2023-04-14T20:48:57.425Z,5.03
2023-04-14T20:53:59.137Z,6.18
2023-04-14T20:59:01.381Z,4.10
2023-04-14T21:04:03.674Z,5.00
2023-04-14T21:09:06.022Z,5.50
2023-04-14T21:15:31.333Z,10.32
2023-04-14T21:19:29.694Z,5.63
2023-04-14T21:24:31.423Z,9.35
2023-04-14T21:29:33.135Z,5.85
2023-04-14T21:34:36.073Z,6.20
2023-04-14T21:39:38.216Z,9.23
2023-04-14T21:44:40.081Z,5.72
2023-04-14T21:49:42.011Z,9.40
2023-04-14T21:54:46.419Z,12.20
2023-04-14T21:59:48.727Z,6.32
2023-04-14T22:04:50.617Z,3.65
2023-04-14T22:09:53.596Z,9.50
2023-04-14T22:14:55.437Z,6.45
2023-04-14T22:19:57.604Z,11.98
2023-04-14T22:24:59.560Z,6.15
2023-04-14T22:30:02.804Z,12.30
2023-04-14T22:35:05.260Z,9.50
2023-04-14T22:40:07.577Z,8.77
2023-04-14T22:45:10.126Z,4.10
2023-04-14T22:50:11.929Z,6.63
2023-04-14T22:55:14.202Z,6.93
2023-04-14T23:00:17.373Z,5.15
2023-04-14T23:05:19.231Z,8.93
2023-04-14T23:10:21.664Z,10.32
2023-04-14T23:15:23.476Z,6.32
2023-04-14T23:20:25.472Z,7.53
2023-04-14T23:25:27.938Z,8.60
2023-04-14T23:30:30.027Z,8.38
2023-04-14T23:35:31.863Z,8.02
2023-04-14T23:40:34.058Z,6.30
2023-04-14T23:45:37.757Z,7.20
2023-04-14T23:51:00.120Z,6.97
2023-04-14T23:56:03.268Z,7.60
